Time;durP1;ratioP1;P1;durP2;ratioP2;P2;SDS_P1;SDS_P2;PMS_P1;PMS_P2;Temp;Humidity;BMP_temperature;BMP_pressure;BME280_temperature;BME280_humidity;BME280_pressure;Samples;Min_cycle;Max_cycle;Signal;HPM_P1;HPM_P2
2023/11/10 00:02:54;;;;;;;;;;;7.10;99.90;;;;;;8358149;28;20043;-70
2023/11/10 00:06:56;;;;;;;;;;;7.20;99.90;;;;;;8354028;28;19925;-70
2023/11/10 00:10:58;;;;;;;;;;;7.30;99.90;;;;;;8358256;28;19980;-70
2023/11/10 00:15:00;;;;;;;;;;;7.30;99.90;;;;;;8344281;28;19979;-70
2023/11/10 00:19:03;;;;;;;;;;;7.40;99.90;;;;;;8353784;28;20023;-70
2023/11/10 00:23:07;;;;;;;;;;;7.40;99.90;;;;;;8356164;28;19932;-71
2023/11/10 00:32:06;;;;;;;;;;;7.40;99.90;;;;;;8354610;28;19935;-70
2023/11/10 00:36:08;;;;;;;;;;;7.50;99.90;;;;;;8356373;28;19979;-70
2023/11/10 00:40:10;;;;;;;;;;;7.40;99.90;;;;;;8353748;28;19966;-70
2023/11/10 00:44:11;;;;;;;;;;;7.50;99.90;;;;;;8355330;28;19932;-70
2023/11/10 00:48:13;;;;;;;;;;;7.50;99.90;;;;;;8353612;28;19932;-71
2023/11/10 00:52:15;;;;;;;;;;;7.50;99.90;;;;;;8358324;28;19935;-70
2023/11/10 00:56:16;;;;;;;;;;;7.50;99.90;;;;;;8354351;28;20656;-70
2023/11/10 01:00:18;;;;;;;;;;;7.50;99.90;;;;;;8335156;28;19925;-70
2023/11/10 01:04:20;;;;;;;;;;;7.50;99.90;;;;;;8355396;28;19925;-70
2023/11/10 01:08:22;;;;;;;;;;;7.50;99.90;;;;;;8355318;28;19928;-70
2023/11/10 01:12:23;;;;;;;;;;;7.50;99.90;;;;;;8356500;28;19976;-71
2023/11/10 01:16:28;;;;;;;;;;;7.50;99.90;;;;;;8346269;28;19936;-71
2023/11/10 01:20:31;;;;;;;;;;;7.60;99.90;;;;;;8354351;28;19924;-70
2023/11/10 01:24:34;;;;;;;;;;;7.60;99.90;;;;;;8352377;28;20394;-71
2023/11/10 01:28:37;;;;;;;;;;;7.60;99.90;;;;;;8353013;28;19951;-71
2023/11/10 01:32:39;;;;;;;;;;;7.60;99.90;;;;;;8356494;28;19932;-71
2023/11/10 01:36:40;;;;;;;;;;;7.70;99.90;;;;;;8349590;28;19932;-70
2023/11/10 01:40:43;;;;;;;;;;;7.70;99.90;;;;;;8355635;28;19924;-71
2023/11/10 01:44:45;;;;;;;;;;;7.70;99.90;;;;;;8350341;28;19925;-71
2023/11/10 01:48:46;;;;;;;;;;;7.60;99.90;;;;;;8352515;28;19925;-71
2023/11/10 01:52:48;;;;;;;;;;;7.70;99.90;;;;;;8339277;28;19925;-70
2023/11/10 01:56:50;;;;;;;;;;;7.70;99.90;;;;;;8319289;28;19958;-70
2023/11/10 02:00:52;;;;;;;;;;;7.70;99.90;;;;;;8321269;28;20487;-71
2023/11/10 02:04:54;;;;;;;;;;;7.70;99.90;;;;;;8322008;28;19925;-70
2023/11/10 02:08:57;;;;;;;;;;;7.80;99.90;;;;;;8316874;28;19981;-70
2023/11/10 02:13:01;;;;;;;;;;;7.80;99.90;;;;;;8322382;28;20383;-70
2023/11/10 02:17:03;;;;;;;;;;;7.80;99.90;;;;;;8313410;28;19926;-70
2023/11/10 02:21:05;;;;;;;;;;;7.70;99.90;;;;;;8318417;28;20409;-71
2023/11/10 02:25:25;;;;;;;;;;;7.70;99.90;;;;;;8321519;28;20296;-70
2023/11/10 02:44:36;;;;;;;;;;;7.80;99.90;;;;;;8322448;28;20020;-71
2023/11/10 02:48:39;;;;;;;;;;;7.80;99.90;;;;;;8323802;28;20005;-70
2023/11/10 02:52:40;;;;;;;;;;;7.80;99.90;;;;;;8346050;28;19935;-70
2023/11/10 02:56:42;;;;;;;;;;;7.90;99.90;;;;;;8360713;28;19979;-70
2023/11/10 03:00:44;;;;;;;;;;;7.90;99.90;;;;;;8358359;28;19925;-70
2023/11/10 03:04:45;;;;;;;;;;;7.90;99.90;;;;;;8367875;28;19931;-70
2023/11/10 03:08:47;;;;;;;;;;;7.90;99.90;;;;;;8356746;28;19986;-70
2023/11/10 03:12:50;;;;;;;;;;;7.90;99.90;;;;;;8356225;28;20396;-70
2023/11/10 03:16:51;;;;;;;;;;;7.90;99.90;;;;;;8350916;28;20364;-70
2023/11/10 03:20:54;;;;;;;;;;;7.90;99.90;;;;;;8356077;28;20269;-70
2023/11/10 03:24:55;;;;;;;;;;;7.90;99.90;;;;;;8361967;28;19979;-70
2023/11/10 03:28:57;;;;;;;;;;;7.90;99.90;;;;;;8355109;28;19925;-70
2023/11/10 03:32:59;;;;;;;;;;;7.90;99.90;;;;;;8355676;28;19928;-71
2023/11/10 03:37:01;;;;;;;;;;;7.90;99.90;;;;;;8359092;28;19932;-70
2023/11/10 03:41:02;;;;;;;;;;;7.90;99.90;;;;;;8355276;28;19955;-70
2023/11/10 03:45:04;;;;;;;;;;;7.90;99.90;;;;;;8356128;28;19928;-70
2023/11/10 03:49:07;;;;;;;;;;;7.90;99.90;;;;;;8354105;28;19963;-71
2023/11/10 03:53:09;;;;;;;;;;;7.90;99.90;;;;;;8357458;28;19925;-70
2023/11/10 03:57:10;;;;;;;;;;;7.90;99.90;;;;;;8358461;28;20386;-70
2023/11/10 04:01:13;;;;;;;;;;;7.90;99.90;;;;;;8354853;28;19925;-70
2023/11/10 04:05:15;;;;;;;;;;;7.90;99.90;;;;;;8356877;28;19925;-70
2023/11/10 04:09:17;;;;;;;;;;;7.80;99.90;;;;;;8338128;28;20434;-70
2023/11/10 04:13:19;;;;;;;;;;;7.80;99.90;;;;;;8355800;28;19945;-70
2023/11/10 04:17:21;;;;;;;;;;;7.90;99.90;;;;;;8350685;28;20368;-70
2023/11/10 04:21:23;;;;;;;;;;;7.90;99.90;;;;;;8353552;28;19924;-70
2023/11/10 04:25:25;;;;;;;;;;;7.90;99.90;;;;;;8356584;28;19932;-70
2023/11/10 04:29:28;;;;;;;;;;;7.90;99.90;;;;;;8338096;28;19928;-70
2023/11/10 04:33:29;;;;;;;;;;;7.80;99.90;;;;;;8347328;28;19925;-71
2023/11/10 04:37:31;;;;;;;;;;;7.90;99.90;;;;;;8347845;28;19969;-70
2023/11/10 04:41:33;;;;;;;;;;;7.90;99.90;;;;;;8347439;28;19940;-70
2023/11/10 04:45:34;;;;;;;;;;;7.80;99.90;;;;;;8355933;28;19936;-70
2023/11/10 04:49:38;;;;;;;;;;;7.90;99.90;;;;;;8353907;28;19932;-70
2023/11/10 04:53:39;;;;;;;;;;;7.80;99.90;;;;;;8347447;28;19933;-70
2023/11/10 04:57:41;;;;;;;;;;;7.90;99.90;;;;;;8354976;28;20351;-70
2023/11/10 05:01:43;;;;;;;;;;;7.80;99.90;;;;;;8351986;28;20308;-70
2023/11/10 05:05:48;;;;;;;;;;;7.90;99.90;;;;;;8333308;28;19929;-70
2023/11/10 05:09:51;;;;;;;;;;;7.90;99.90;;;;;;8355297;28;19975;-70
2023/11/10 05:13:52;;;;;;;;;;;7.80;99.90;;;;;;8352374;28;20003;-70
2023/11/10 05:17:54;;;;;;;;;;;7.80;99.90;;;;;;8333066;28;19925;-70
2023/11/10 05:21:56;;;;;;;;;;;7.80;99.90;;;;;;8353322;28;19925;-70
2023/11/10 05:25:58;;;;;;;;;;;7.80;99.90;;;;;;8355955;28;19972;-70
2023/11/10 05:30:00;;;;;;;;;;;7.70;99.90;;;;;;8349760;28;19929;-71
2023/11/10 05:34:03;;;;;;;;;;;7.60;99.90;;;;;;8355843;28;20324;-70
2023/11/10 05:38:06;;;;;;;;;;;7.50;99.90;;;;;;8351587;28;19936;-71
2023/11/10 05:42:08;;;;;;;;;;;7.40;99.90;;;;;;8351697;28;20316;-71
2023/11/10 05:46:09;;;;;;;;;;;7.30;99.90;;;;;;8357041;28;20086;-70
2023/11/10 05:50:13;;;;;;;;;;;7.20;99.90;;;;;;8355048;28;19932;-71
2023/11/10 05:54:15;;;;;;;;;;;7.10;99.90;;;;;;8352633;28;19924;-70
2023/11/10 05:58:17;;;;;;;;;;;7.10;99.90;;;;;;8339343;28;19925;-70
2023/11/10 06:02:18;;;;;;;;;;;7.00;99.90;;;;;;8346545;28;19936;-72
2023/11/10 06:06:24;;;;;;;;;;;7.00;99.90;;;;;;8354379;28;19940;-70
2023/11/10 06:10:26;;;;;;;;;;;7.00;99.90;;;;;;8353538;28;19932;-70
2023/11/10 06:14:28;;;;;;;;;;;7.00;99.90;;;;;;8332778;28;19998;-70
2023/11/10 06:18:31;;;;;;;;;;;7.00;99.90;;;;;;8354244;28;20315;-70
2023/11/10 06:22:36;;;;;;;;;;;7.00;99.90;;;;;;8357793;28;19985;-71
2023/11/10 06:26:38;;;;;;;;;;;7.10;99.90;;;;;;8360023;28;19978;-70
2023/11/10 06:30:40;;;;;;;;;;;7.10;99.90;;;;;;8360860;28;19928;-70
2023/11/10 06:34:42;;;;;;;;;;;7.10;99.90;;;;;;8336177;28;19928;-70
2023/11/10 06:38:44;;;;;;;;;;;7.10;99.90;;;;;;8356224;28;19932;-70
2023/11/10 06:42:45;;;;;;;;;;;7.00;99.90;;;;;;8352181;28;19987;-70
2023/11/10 06:46:47;;;;;;;;;;;7.00;99.90;;;;;;8339391;28;19933;-70
2023/11/10 06:50:49;;;;;;;;;;;7.00;99.90;;;;;;8349542;28;20426;-70
2023/11/10 06:54:50;;;;;;;;;;;7.00;99.90;;;;;;8351613;28;20004;-70
2023/11/10 06:58:55;;;;;;;;;;;7.00;99.90;;;;;;8357420;28;19925;-70
2023/11/10 07:02:57;;;;;;;;;;;7.10;99.90;;;;;;8357546;28;20251;-70
2023/11/10 07:06:59;;;;;;;;;;;7.10;99.90;;;;;;8357544;28;20391;-70
2023/11/10 07:11:02;;;;;;;;;;;7.10;99.90;;;;;;8343473;28;19979;-70
2023/11/10 07:15:04;;;;;;;;;;;7.10;99.90;;;;;;8351076;28;19932;-70
2023/11/10 07:19:06;;;;;;;;;;;7.10;99.90;;;;;;8359296;28;19928;-70
2023/11/10 07:23:07;;;;;;;;;;;7.10;99.90;;;;;;8357015;28;20261;-70
2023/11/10 07:27:10;;;;;;;;;;;7.10;99.90;;;;;;8328385;28;19929;-70
2023/11/10 07:31:12;;;;;;;;;;;7.20;99.90;;;;;;8359521;28;19975;-70
2023/11/10 07:35:14;;;;;;;;;;;7.20;99.90;;;;;;8358045;28;19929;-70
2023/11/10 07:39:16;;;;;;;;;;;7.20;99.90;;;;;;8350493;28;19963;-70
2023/11/10 07:43:17;;;;;;;;;;;7.20;99.90;;;;;;8359613;28;19981;-70
2023/11/10 07:47:19;;;;;;;;;;;7.30;99.90;;;;;;8354134;28;19925;-70
2023/11/10 07:51:23;;;;;;;;;;;7.30;99.90;;;;;;8358960;28;19925;-70
2023/11/10 07:55:27;;;;;;;;;;;7.30;99.90;;;;;;8357585;28;19925;-70
2023/11/10 07:59:29;;;;;;;;;;;7.30;99.90;;;;;;8355906;28;20356;-70
2023/11/10 08:03:31;;;;;;;;;;;7.30;99.90;;;;;;8343600;28;19936;-70
2023/11/10 08:07:32;;;;;;;;;;;7.30;99.90;;;;;;8354112;28;19925;-70
2023/11/10 08:11:34;;;;;;;;;;;7.30;99.90;;;;;;8357859;28;19932;-70
2023/11/10 08:15:47;;;;;;;;;;;7.40;99.90;;;;;;8349123;28;19928;-70
2023/11/10 08:19:49;;;;;;;;;;;7.40;99.90;;;;;;8359509;28;19948;-70
2023/11/10 08:23:51;;;;;;;;;;;7.40;99.90;;;;;;8359153;28;19925;-69
2023/11/10 08:27:54;;;;;;;;;;;7.50;99.90;;;;;;8356812;28;19990;-70
2023/11/10 08:31:56;;;;;;;;;;;7.50;99.90;;;;;;8352870;28;19932;-70
2023/11/10 08:35:58;;;;;;;;;;;7.60;99.90;;;;;;8359514;28;19964;-70
2023/11/10 08:40:00;;;;;;;;;;;7.70;99.90;;;;;;8354582;28;19933;-70
2023/11/10 08:44:04;;;;;;;;;;;7.80;99.90;;;;;;8351440;28;20402;-70
2023/11/10 08:48:06;;;;;;;;;;;8.00;99.90;;;;;;8359363;28;19947;-70
2023/11/10 08:52:07;;;;;;;;;;;8.00;99.90;;;;;;8354883;28;19956;-70
2023/11/10 08:56:10;;;;;;;;;;;8.10;99.90;;;;;;8358511;28;19971;-70
2023/11/10 09:00:15;;;;;;;;;;;8.00;99.90;;;;;;8356959;28;19986;-70
2023/11/10 09:04:17;;;;;;;;;;;8.10;99.90;;;;;;8354531;28;20352;-71
2023/11/10 09:08:25;;;;;;;;;;;8.10;99.90;;;;;;8354613;28;19931;-71
2023/11/10 09:12:28;;;;;;;;;;;8.00;99.90;;;;;;8353712;28;19924;-70
2023/11/10 09:16:30;;;;;;;;;;;8.00;99.90;;;;;;8343517;28;19925;-70
2023/11/10 09:20:32;;;;;;;;;;;8.00;99.90;;;;;;8350040;28;20367;-70
2023/11/10 09:24:33;;;;;;;;;;;8.00;99.90;;;;;;8353294;28;19975;-70
2023/11/10 09:28:37;;;;;;;;;;;8.10;99.90;;;;;;8352785;28;19963;-70
2023/11/10 09:32:40;;;;;;;;;;;8.10;99.90;;;;;;8355751;28;19929;-71
2023/11/10 09:36:41;;;;;;;;;;;8.20;99.90;;;;;;8352412;28;19928;-70
2023/11/10 09:40:43;;;;;;;;;;;8.30;99.90;;;;;;8334889;28;19925;-70
2023/11/10 09:44:52;;;;;;;;;;;8.40;99.90;;;;;;8356951;28;19936;-70
2023/11/10 09:48:54;;;;;;;;;;;8.40;99.90;;;;;;8352509;28;19925;-71
2023/11/10 09:52:57;;;;;;;;;;;8.40;99.90;;;;;;8353272;28;19924;-71
2023/11/10 09:56:59;;;;;;;;;;;8.40;99.90;;;;;;8355774;28;19925;-70
2023/11/10 10:01:01;;;;;;;;;;;8.50;99.90;;;;;;8354145;28;19925;-70
2023/11/10 10:05:02;;;;;;;;;;;8.50;99.90;;;;;;8355929;28;19972;-71
2023/11/10 10:09:05;;;;;;;;;;;8.60;99.90;;;;;;8353003;28;19933;-71
2023/11/10 10:13:06;;;;;;;;;;;8.60;99.90;;;;;;8355788;28;19925;-71
2023/11/10 10:17:09;;;;;;;;;;;8.70;99.90;;;;;;8330102;28;19929;-70
2023/11/10 10:21:11;;;;;;;;;;;8.60;99.90;;;;;;8337404;28;20431;-70
2023/11/10 10:25:13;;;;;;;;;;;8.60;99.90;;;;;;8322869;28;19972;-70
2023/11/10 10:29:18;;;;;;;;;;;8.60;99.90;;;;;;8324096;28;19932;-71
2023/11/10 10:33:19;;;;;;;;;;;8.60;99.90;;;;;;8324699;28;20385;-71
2023/11/10 10:37:21;;;;;;;;;;;8.60;99.90;;;;;;8306036;28;19925;-70
2023/11/10 10:41:25;;;;;;;;;;;8.50;99.90;;;;;;8328975;28;20335;-70
2023/11/10 10:45:27;;;;;;;;;;;8.50;99.90;;;;;;8325616;28;19960;-70
2023/11/10 10:49:32;;;;;;;;;;;8.50;99.90;;;;;;8330111;28;20050;-70
2023/11/10 10:53:35;;;;;;;;;;;8.40;99.90;;;;;;8321377;28;20237;-72
2023/11/10 10:57:37;;;;;;;;;;;8.40;99.90;;;;;;8325373;28;19932;-71
2023/11/10 11:01:41;;;;;;;;;;;8.40;99.90;;;;;;8330504;28;19932;-71
2023/11/10 11:05:57;;;;;;;;;;;8.40;99.90;;;;;;8325296;28;19932;-71
2023/11/10 11:10:16;;;;;;;;;;;8.40;99.90;;;;;;8329036;28;19929;-70
2023/11/10 11:14:47;;;;;;;;;;;8.40;99.90;;;;;;8331052;28;19971;-71
2023/11/10 11:19:10;;;;;;;;;;;8.40;99.90;;;;;;8318722;28;19929;-71
2023/11/10 11:23:13;;;;;;;;;;;8.50;99.90;;;;;;8321249;28;19932;-71
2023/11/10 11:27:24;;;;;;;;;;;8.50;99.90;;;;;;8326003;28;19929;-70
2023/11/10 11:31:26;;;;;;;;;;;8.60;99.90;;;;;;8322122;28;20393;-71
2023/11/10 11:35:37;;;;;;;;;;;8.60;99.90;;;;;;8326234;28;19933;-71
2023/11/10 11:39:38;;;;;;;;;;;8.70;99.90;;;;;;8320984;28;20395;-70
2023/11/10 11:43:46;;;;;;;;;;;8.80;99.90;;;;;;8322243;28;19931;-70
2023/11/10 11:47:49;;;;;;;;;;;8.90;99.90;;;;;;8324176;28;19928;-71
2023/11/10 11:51:51;;;;;;;;;;;8.90;99.90;;;;;;8325517;28;20354;-71
2023/11/10 11:55:55;;;;;;;;;;;8.90;99.90;;;;;;8321466;28;19931;-70
2023/11/10 11:59:57;;;;;;;;;;;8.90;99.90;;;;;;8320094;28;20387;-71
2023/11/10 12:03:58;;;;;;;;;;;8.90;99.90;;;;;;8322298;28;19932;-71
2023/11/10 12:08:01;;;;;;;;;;;8.90;99.90;;;;;;8320563;28;20315;-70
2023/11/10 12:12:03;;;;;;;;;;;8.90;99.90;;;;;;8322048;28;19933;-71
2023/11/10 12:16:06;;;;;;;;;;;8.90;99.90;;;;;;8320456;28;19929;-70
2023/11/10 12:20:08;;;;;;;;;;;8.90;99.90;;;;;;8318179;28;20033;-71
2023/11/10 12:24:10;;;;;;;;;;;9.00;99.90;;;;;;8319921;28;19971;-70
2023/11/10 12:28:13;;;;;;;;;;;9.00;99.90;;;;;;8323028;28;19925;-70
2023/11/10 12:32:15;;;;;;;;;;;9.00;99.90;;;;;;8325725;28;19968;-70
2023/11/10 12:36:18;;;;;;;;;;;8.90;99.90;;;;;;8320276;28;19979;-71
2023/11/10 12:40:22;;;;;;;;;;;8.90;99.90;;;;;;8317824;28;19991;-71
2023/11/10 12:44:24;;;;;;;;;;;8.90;99.90;;;;;;8319695;28;19971;-70
2023/11/10 12:48:27;;;;;;;;;;;8.90;99.90;;;;;;8304852;28;19979;-70
2023/11/10 12:52:31;;;;;;;;;;;8.80;99.90;;;;;;8332987;28;19965;-71
2023/11/10 12:56:33;;;;;;;;;;;8.70;99.90;;;;;;8322278;28;19936;-71
2023/11/10 13:00:35;;;;;;;;;;;8.60;99.90;;;;;;8321305;28;19952;-71
2023/11/10 13:04:37;;;;;;;;;;;8.50;99.90;;;;;;8318688;28;20373;-70
2023/11/10 13:08:39;;;;;;;;;;;8.50;99.90;;;;;;8319016;28;20369;-71
2023/11/10 13:12:40;;;;;;;;;;;8.40;99.90;;;;;;8319876;28;19929;-71
2023/11/10 13:16:42;;;;;;;;;;;8.40;99.90;;;;;;8317932;28;20380;-70
2023/11/10 13:20:44;;;;;;;;;;;8.40;99.90;;;;;;8322382;28;19929;-70
2023/11/10 13:24:46;;;;;;;;;;;8.40;99.90;;;;;;8319965;28;19925;-70
2023/11/10 13:28:48;;;;;;;;;;;8.40;99.90;;;;;;8320187;28;20051;-71
2023/11/10 13:32:52;;;;;;;;;;;8.40;99.90;;;;;;8320110;28;19929;-72
2023/11/10 13:36:56;;;;;;;;;;;8.40;99.90;;;;;;8320752;28;19929;-71
2023/11/10 13:40:58;;;;;;;;;;;8.40;99.90;;;;;;8320872;28;19982;-71
2023/11/10 13:45:00;;;;;;;;;;;8.40;99.90;;;;;;8318628;28;19933;-72
2023/11/10 13:49:01;;;;;;;;;;;8.50;99.90;;;;;;8317362;28;19965;-71
2023/11/10 13:53:03;;;;;;;;;;;8.50;99.90;;;;;;8319194;28;20031;-71
2023/11/10 13:57:05;;;;;;;;;;;8.50;99.90;;;;;;8317907;28;19925;-72
2023/11/10 14:01:08;;;;;;;;;;;8.50;99.90;;;;;;8319687;28;19925;-71
2023/11/10 14:05:11;;;;;;;;;;;8.50;99.90;;;;;;8320840;28;19952;-70
2023/11/10 14:09:15;;;;;;;;;;;8.50;99.90;;;;;;8318393;28;20348;-71
2023/11/10 14:13:16;;;;;;;;;;;8.50;99.90;;;;;;8318018;28;19929;-71
2023/11/10 14:17:19;;;;;;;;;;;8.50;99.90;;;;;;8319916;28;19932;-71
2023/11/10 14:21:22;;;;;;;;;;;8.50;99.90;;;;;;8325584;28;19933;-71
2023/11/10 14:25:24;;;;;;;;;;;8.50;99.90;;;;;;8317329;28;19929;-71
2023/11/10 14:29:26;;;;;;;;;;;8.40;99.90;;;;;;8319768;28;19932;-71
2023/11/10 14:33:29;;;;;;;;;;;8.40;99.90;;;;;;8322542;28;20299;-71
2023/11/10 14:37:34;;;;;;;;;;;8.40;99.90;;;;;;8325317;28;19951;-71
2023/11/10 14:41:35;;;;;;;;;;;8.40;99.90;;;;;;8327612;28;20353;-71
2023/11/10 14:45:37;;;;;;;;;;;8.40;99.90;;;;;;8340163;28;19970;-71
2023/11/10 14:49:44;;;;;;;;;;;8.40;99.90;;;;;;8323355;28;19979;-71
2023/11/10 14:53:46;;;;;;;;;;;8.40;99.90;;;;;;8325689;28;19933;-71
2023/11/10 14:57:50;;;;;;;;;;;8.40;99.90;;;;;;8323054;28;20307;-71
2023/11/10 15:01:51;;;;;;;;;;;8.40;99.90;;;;;;8337697;28;19933;-71
2023/11/10 15:05:54;;;;;;;;;;;8.40;99.90;;;;;;8325787;28;20391;-71
2023/11/10 15:09:56;;;;;;;;;;;8.40;99.90;;;;;;8324425;28;20289;-71
2023/11/10 15:13:58;;;;;;;;;;;8.40;99.90;;;;;;8328261;28;19928;-72
2023/11/10 15:17:59;;;;;;;;;;;8.40;99.90;;;;;;8327606;28;19925;-72
2023/11/10 15:22:02;;;;;;;;;;;8.50;99.90;;;;;;8324304;28;19925;-71
2023/11/10 15:26:05;;;;;;;;;;;8.40;99.90;;;;;;8322726;28;19979;-72
2023/11/10 15:30:08;;;;;;;;;;;8.50;99.90;;;;;;8327192;28;19961;-73
2023/11/10 15:34:12;;;;;;;;;;;8.50;99.90;;;;;;8327190;28;19933;-73
2023/11/10 15:38:15;;;;;;;;;;;8.50;99.90;;;;;;8321033;28;19933;-73
2023/11/10 15:42:17;;;;;;;;;;;8.50;99.90;;;;;;8325019;28;19929;-73
2023/11/10 15:46:18;;;;;;;;;;;8.50;99.90;;;;;;8323328;28;19936;-72
2023/11/10 15:50:21;;;;;;;;;;;8.50;99.90;;;;;;8326252;28;20536;-72
2023/11/10 15:54:26;;;;;;;;;;;8.50;99.90;;;;;;8320897;28;20300;-72
2023/11/10 15:58:29;;;;;;;;;;;8.40;99.90;;;;;;8323212;28;20348;-72
2023/11/10 16:02:30;;;;;;;;;;;8.40;99.90;;;;;;8323203;28;20396;-72
2023/11/10 16:06:32;;;;;;;;;;;8.40;99.90;;;;;;8323410;28;19929;-71
2023/11/10 16:10:35;;;;;;;;;;;8.40;99.90;;;;;;8323443;28;19992;-70
2023/11/10 16:14:37;;;;;;;;;;;8.40;99.90;;;;;;8321746;28;19925;-70
2023/11/10 16:18:38;;;;;;;;;;;8.40;99.90;;;;;;8322282;28;19933;-70
2023/11/10 16:22:42;;;;;;;;;;;8.40;99.90;;;;;;8322601;28;19929;-71
2023/11/10 16:26:44;;;;;;;;;;;8.40;99.90;;;;;;8320369;28;19924;-70
2023/11/10 16:30:46;;;;;;;;;;;8.40;99.90;;;;;;8323224;28;19925;-70
2023/11/10 16:34:48;;;;;;;;;;;8.40;99.90;;;;;;8323913;28;19940;-70
2023/11/10 16:38:50;;;;;;;;;;;8.40;99.90;;;;;;8334554;28;19928;-70
2023/11/10 16:42:51;;;;;;;;;;;8.40;99.90;;;;;;8323865;28;19932;-70
2023/11/10 16:46:53;;;;;;;;;;;8.40;99.90;;;;;;8322317;28;19939;-70
2023/11/10 16:50:55;;;;;;;;;;;8.40;99.90;;;;;;8318866;28;19928;-70
2023/11/10 16:54:57;;;;;;;;;;;8.40;99.90;;;;;;8321816;28;19929;-70
2023/11/10 16:58:59;;;;;;;;;;;8.30;99.90;;;;;;8322205;28;20011;-70
2023/11/10 17:03:03;;;;;;;;;;;8.20;99.90;;;;;;8322416;28;19933;-70
2023/11/10 17:07:04;;;;;;;;;;;8.20;99.90;;;;;;8320526;28;19936;-70
2023/11/10 17:11:06;;;;;;;;;;;8.10;99.90;;;;;;8322082;28;19929;-70
2023/11/10 17:25:17;;;;;;;;;;;7.90;99.90;;;;;;8322679;28;20074;-70
2023/11/10 17:29:19;;;;;;;;;;;7.90;99.90;;;;;;8319773;28;19936;-70
2023/11/10 17:33:21;;;;;;;;;;;7.90;99.90;;;;;;8320881;28;19987;-70
2023/11/10 17:37:23;;;;;;;;;;;7.90;99.90;;;;;;8319506;28;19924;-71
2023/11/10 17:41:25;;;;;;;;;;;7.90;99.90;;;;;;8324159;28;20446;-70
2023/11/10 17:45:29;;;;;;;;;;;7.90;99.90;;;;;;8321117;28;19974;-71
2023/11/10 17:49:31;;;;;;;;;;;7.90;99.90;;;;;;8317362;28;19924;-71
2023/11/10 17:53:33;;;;;;;;;;;7.80;99.90;;;;;;8319464;28;19932;-70
2023/11/10 17:57:35;;;;;;;;;;;7.80;99.90;;;;;;8320235;28;20303;-71
2023/11/10 18:01:37;;;;;;;;;;;7.80;99.90;;;;;;8320629;28;20037;-71
2023/11/10 18:05:39;;;;;;;;;;;7.80;99.90;;;;;;8321146;28;19933;-71
2023/11/10 18:09:40;;;;;;;;;;;7.80;99.90;;;;;;8302651;28;20450;-71
2023/11/10 18:13:42;;;;;;;;;;;7.80;99.90;;;;;;8324551;28;19933;-71
2023/11/10 18:17:44;;;;;;;;;;;7.80;99.90;;;;;;8326151;28;19984;-71
2023/11/10 18:21:45;;;;;;;;;;;7.80;99.90;;;;;;8326871;28;19926;-70
2023/11/10 18:25:47;;;;;;;;;;;7.80;99.90;;;;;;8324891;28;19936;-70
2023/11/10 18:29:49;;;;;;;;;;;7.90;99.90;;;;;;8326624;28;20675;-71
2023/11/10 18:33:51;;;;;;;;;;;7.90;99.90;;;;;;8327076;28;20352;-71
2023/11/10 18:37:52;;;;;;;;;;;7.90;99.90;;;;;;8332070;28;19932;-71
2023/11/10 18:41:54;;;;;;;;;;;7.90;99.90;;;;;;8327228;28;20388;-71
2023/11/10 18:45:56;;;;;;;;;;;7.90;99.90;;;;;;8330189;28;20250;-70
2023/11/10 18:49:58;;;;;;;;;;;7.90;99.90;;;;;;8347818;28;19925;-71
2023/11/10 18:54:00;;;;;;;;;;;7.90;99.90;;;;;;8330360;28;19936;-71
2023/11/10 18:58:01;;;;;;;;;;;7.90;99.90;;;;;;8326314;28;19966;-70
2023/11/10 19:02:03;;;;;;;;;;;7.90;99.90;;;;;;8326475;28;19940;-72
2023/11/10 19:06:05;;;;;;;;;;;7.90;99.90;;;;;;8325144;28;19929;-72
2023/11/10 19:10:08;;;;;;;;;;;7.80;99.90;;;;;;8326696;28;19925;-71
2023/11/10 19:14:12;;;;;;;;;;;7.80;99.90;;;;;;8324939;28;19968;-70
2023/11/10 19:18:14;;;;;;;;;;;7.80;99.90;;;;;;8326885;28;19937;-71
2023/11/10 19:22:16;;;;;;;;;;;7.80;99.90;;;;;;8328083;28;20420;-71
2023/11/10 19:26:18;;;;;;;;;;;7.80;99.90;;;;;;8325921;28;19936;-70
2023/11/10 19:30:20;;;;;;;;;;;7.80;99.90;;;;;;8307209;28;20331;-70
2023/11/10 19:34:23;;;;;;;;;;;7.80;99.90;;;;;;8330095;28;19969;-72
2023/11/10 19:38:24;;;;;;;;;;;7.90;99.90;;;;;;8323635;28;19972;-71
2023/11/10 19:42:26;;;;;;;;;;;7.90;99.90;;;;;;8320860;28;19925;-71
2023/11/10 19:46:29;;;;;;;;;;;7.90;99.90;;;;;;8323794;28;19925;-71
2023/11/10 19:50:31;;;;;;;;;;;7.80;99.90;;;;;;8327127;28;20372;-71
2023/11/10 19:54:33;;;;;;;;;;;7.80;99.90;;;;;;8325765;28;19925;-71
2023/11/10 19:58:40;;;;;;;;;;;7.80;99.90;;;;;;8329532;28;19929;-71
2023/11/10 20:02:45;;;;;;;;;;;7.80;99.90;;;;;;8307877;28;19925;-70
2023/11/10 20:06:49;;;;;;;;;;;7.80;99.90;;;;;;8322784;28;19976;-71
2023/11/10 20:10:51;;;;;;;;;;;7.80;99.90;;;;;;8321638;28;20308;-71
2023/11/10 20:14:53;;;;;;;;;;;7.80;99.90;;;;;;8320572;28;20404;-71
2023/11/10 20:18:55;;;;;;;;;;;7.80;99.90;;;;;;8320177;28;20549;-71
2023/11/10 20:22:56;;;;;;;;;;;7.80;99.90;;;;;;8323275;28;19933;-71
2023/11/10 20:26:58;;;;;;;;;;;7.80;99.90;;;;;;8321958;28;19928;-71
2023/11/10 20:31:00;;;;;;;;;;;7.80;99.90;;;;;;8327071;28;20017;-71
2023/11/10 20:35:02;;;;;;;;;;;7.80;99.90;;;;;;8319600;28;19929;-71
2023/11/10 20:39:03;;;;;;;;;;;7.80;99.90;;;;;;8324409;28;19926;-71
2023/11/10 20:43:05;;;;;;;;;;;7.80;99.90;;;;;;8326800;28;20018;-71
2023/11/10 20:47:07;;;;;;;;;;;7.80;99.90;;;;;;8320468;28;19925;-71
2023/11/10 20:51:08;;;;;;;;;;;7.80;99.90;;;;;;8324828;28;20304;-70
2023/11/10 20:55:10;;;;;;;;;;;7.70;99.90;;;;;;8304756;28;20023;-71
2023/11/10 20:59:12;;;;;;;;;;;7.70;99.90;;;;;;8329494;28;19995;-71
2023/11/10 21:03:14;;;;;;;;;;;7.70;99.90;;;;;;8322099;28;19928;-71
2023/11/10 21:07:15;;;;;;;;;;;7.60;99.90;;;;;;8316484;28;20300;-71
2023/11/10 21:11:18;;;;;;;;;;;7.60;99.90;;;;;;8316711;28;19932;-70
2023/11/10 21:15:20;;;;;;;;;;;7.60;99.90;;;;;;8319005;28;19929;-71
2023/11/10 21:19:22;;;;;;;;;;;7.60;99.90;;;;;;8321864;28;19977;-72
2023/11/10 21:23:23;;;;;;;;;;;7.50;99.90;;;;;;8322877;28;20285;-71
2023/11/10 21:27:25;;;;;;;;;;;7.50;99.90;;;;;;8322193;28;19940;-71
2023/11/10 21:31:27;;;;;;;;;;;7.50;99.90;;;;;;8325130;28;19979;-71
2023/11/10 21:35:29;;;;;;;;;;;7.50;99.90;;;;;;8322797;28;20481;-71
2023/11/10 21:39:32;;;;;;;;;;;7.40;99.90;;;;;;8320638;28;20262;-71
2023/11/10 21:43:34;;;;;;;;;;;7.40;99.90;;;;;;8324173;28;19933;-71
2023/11/10 21:47:36;;;;;;;;;;;7.40;99.90;;;;;;8320351;28;19939;-71
2023/11/10 21:51:37;;;;;;;;;;;7.30;99.90;;;;;;8314407;28;19929;-71
2023/11/10 21:55:43;;;;;;;;;;;7.30;99.90;;;;;;8320891;28;20060;-71
2023/11/10 21:59:44;;;;;;;;;;;7.30;99.90;;;;;;8322722;28;19933;-72
2023/11/10 22:03:46;;;;;;;;;;;7.30;99.90;;;;;;8347724;28;20392;-71
2023/11/10 22:07:48;;;;;;;;;;;7.20;99.90;;;;;;8352249;28;19931;-71
2023/11/10 22:11:50;;;;;;;;;;;7.20;99.90;;;;;;8352138;28;19924;-71
2023/11/10 22:15:51;;;;;;;;;;;7.10;99.90;;;;;;8330224;28;19933;-70
2023/11/10 22:19:53;;;;;;;;;;;7.10;99.90;;;;;;8355047;28;19925;-71
2023/11/10 22:23:57;;;;;;;;;;;7.10;99.90;;;;;;8350703;28;19925;-70
2023/11/10 22:27:58;;;;;;;;;;;7.10;99.90;;;;;;8347705;28;19937;-71
2023/11/10 22:32:00;;;;;;;;;;;7.10;99.90;;;;;;8353381;28;19924;-71
2023/11/10 22:36:02;;;;;;;;;;;7.10;99.90;;;;;;8349956;28;19959;-71
2023/11/10 22:40:09;;;;;;;;;;;7.10;99.90;;;;;;8352283;28;19956;-72
2023/11/10 22:44:11;;;;;;;;;;;7.10;99.90;;;;;;8338461;28;19943;-71
2023/11/10 22:48:13;;;;;;;;;;;7.10;99.90;;;;;;8349799;28;19932;-71
2023/11/10 22:52:14;;;;;;;;;;;7.00;99.90;;;;;;8343672;28;19929;-71
2023/11/10 22:56:16;;;;;;;;;;;7.00;99.90;;;;;;8334300;28;19925;-71
2023/11/10 23:00:26;;;;;;;;;;;7.00;99.90;;;;;;8361433;28;19932;-70
2023/11/10 23:04:29;;;;;;;;;;;7.00;99.90;;;;;;8344003;28;19975;-71
2023/11/10 23:08:30;;;;;;;;;;;7.00;99.90;;;;;;8343360;28;19924;-71
2023/11/10 23:12:32;;;;;;;;;;;6.90;99.90;;;;;;8342322;28;19929;-71
2023/11/10 23:16:34;;;;;;;;;;;6.90;99.90;;;;;;8347675;28;19937;-71
2023/11/10 23:20:36;;;;;;;;;;;6.90;99.90;;;;;;8345291;28;20013;-70
2023/11/10 23:24:40;;;;;;;;;;;6.80;99.90;;;;;;8355480;28;20300;-70
2023/11/10 23:28:42;;;;;;;;;;;6.80;99.90;;;;;;8353919;28;20033;-72
2023/11/10 23:32:45;;;;;;;;;;;6.80;99.90;;;;;;8353698;28;19933;-71
2023/11/10 23:36:47;;;;;;;;;;;6.80;99.90;;;;;;8355597;28;20019;-71
2023/11/10 23:40:50;;;;;;;;;;;6.70;99.90;;;;;;8355782;28;19933;-70
2023/11/10 23:44:52;;;;;;;;;;;6.70;99.90;;;;;;8358980;28;19932;-71
2023/11/10 23:48:55;;;;;;;;;;;6.70;99.90;;;;;;8353495;28;19933;-70
2023/11/10 23:52:57;;;;;;;;;;;6.70;99.90;;;;;;8353296;28;19939;-70
2023/11/10 23:56:59;;;;;;;;;;;6.60;99.90;;;;;;8356128;28;20385;-71
